createdAt,value
2018-12-21T00:51:54.293Z,4.13
2018-12-21T01:05:06.090Z,5.83
2018-12-21T01:12:50.075Z,6.47
2018-12-21T01:15:19.918Z,4.70
2018-12-21T01:25:43.250Z,5.00
2018-12-21T01:28:13.374Z,6.60
2018-12-21T01:30:43.974Z,3.67
2018-12-21T01:35:51.025Z,4.20
2018-12-21T01:38:20.730Z,5.57
2018-12-21T01:40:50.355Z,4.83
2018-12-21T01:43:21.013Z,4.60
2018-12-21T01:48:24.389Z,4.73
2018-12-21T01:50:53.998Z,5.13
2018-12-21T01:53:28.118Z,6.23
2018-12-21T01:55:57.716Z,4.53
2018-12-21T01:58:27.329Z,4.47
2018-12-21T02:00:56.934Z,4.00
2018-12-21T02:03:26.804Z,3.67
2018-12-21T02:05:56.393Z,5.00
2018-12-21T02:08:26.002Z,12.83
2018-12-21T02:10:55.647Z,5.60
2018-12-21T02:13:25.259Z,3.27
2018-12-21T02:15:54.895Z,5.13
2018-12-21T02:18:24.498Z,4.30
2018-12-21T02:20:54.142Z,1.90
2018-12-21T02:23:23.728Z,3.53
2018-12-21T02:25:53.331Z,7.53
2018-12-21T02:28:23.005Z,3.67
2018-12-21T02:30:52.647Z,2.50
2018-12-21T02:33:22.324Z,7.50
2018-12-21T02:35:51.938Z,4.20
2018-12-21T02:38:21.780Z,5.93
2018-12-21T02:40:51.428Z,6.30
2018-12-21T02:43:21.441Z,2.90
2018-12-21T02:45:51.035Z,4.33
2018-12-21T02:48:20.945Z,4.53
2018-12-21T02:50:50.515Z,7.30
2018-12-21T02:53:20.205Z,5.43
2018-12-21T02:55:49.911Z,3.70
2018-12-21T02:58:19.507Z,2.63
2018-12-21T03:00:49.086Z,3.17
2018-12-21T03:03:18.673Z,5.27
2018-12-21T03:05:48.427Z,6.27
2018-12-21T03:08:18.102Z,5.43
2018-12-21T03:10:47.744Z,5.57
2018-12-21T03:13:17.316Z,5.07
2018-12-21T03:15:46.959Z,4.60
2018-12-21T03:18:16.847Z,3.83
2018-12-21T03:20:46.497Z,3.77
2018-12-21T03:23:16.096Z,5.30
2018-12-21T03:25:45.699Z,6.10
2018-12-21T03:28:15.397Z,1.53
2018-12-21T03:30:45.389Z,3.80
2018-12-21T03:33:15.000Z,5.50
2018-12-21T03:35:44.660Z,4.80
2018-12-21T03:38:14.522Z,5.67
2018-12-21T03:40:44.158Z,3.60
2018-12-21T03:43:13.762Z,4.63
2018-12-21T03:45:43.422Z,2.67
2018-12-21T03:48:13.098Z,4.40
2018-12-21T03:50:42.732Z,2.77
2018-12-21T03:53:12.272Z,3.17
2018-12-21T03:55:41.879Z,2.23
2018-12-21T03:58:11.840Z,2.33
2018-12-21T04:00:41.433Z,5.13
2018-12-21T04:03:11.061Z,5.20
2018-12-21T04:05:40.665Z,4.77
2018-12-21T04:08:10.276Z,3.40
2018-12-21T04:10:39.862Z,5.20
2018-12-21T04:13:09.468Z,5.47
2018-12-21T04:15:39.082Z,3.07
2018-12-21T04:18:08.747Z,5.43
2018-12-21T04:20:38.349Z,3.60
2018-12-21T04:23:08.265Z,2.77
2018-12-21T04:25:37.851Z,4.80
2018-12-21T04:28:07.444Z,2.63
2018-12-21T04:30:37.069Z,3.63
2018-12-21T04:33:06.922Z,4.60
2018-12-21T04:35:36.610Z,4.83
2018-12-21T04:38:06.326Z,2.37
2018-12-21T04:40:35.959Z,3.90
2018-12-21T04:43:05.570Z,1.43
2018-12-21T04:45:35.231Z,1.43
2018-12-21T04:48:04.817Z,2.93
2018-12-21T04:50:34.417Z,6.53
2018-12-21T04:53:04.005Z,3.63
2018-12-21T04:55:33.622Z,3.17
2018-12-21T04:58:03.307Z,2.83
2018-12-21T05:00:32.942Z,3.50
2018-12-21T05:03:02.518Z,3.37
2018-12-21T05:05:32.153Z,2.03
2018-12-21T05:08:01.751Z,1.70
2018-12-21T05:10:31.406Z,1.33
2018-12-21T05:13:01.417Z,1.97
2018-12-21T05:15:31.313Z,2.90
2018-12-21T05:18:00.914Z,2.53
2018-12-21T05:20:30.781Z,3.27
2018-12-21T05:23:00.722Z,3.37
2018-12-21T05:25:30.322Z,4.27
2018-12-21T05:27:59.960Z,4.57
2018-12-21T05:30:29.579Z,2.50
2018-12-21T05:32:59.381Z,4.70
2018-12-21T05:35:28.986Z,4.33
2018-12-21T05:37:58.616Z,3.60
2018-12-21T05:40:28.201Z,3.93
2018-12-21T05:42:57.796Z,6.17
2018-12-21T05:45:27.491Z,1.47
2018-12-21T05:47:57.094Z,1.53
2018-12-21T05:50:26.688Z,2.13
2018-12-21T05:53:00.770Z,0.87
2018-12-21T05:55:27.958Z,2.73
2018-12-21T05:57:58.376Z,2.23
2018-12-21T16:13:50.919Z,10.87
2018-12-21T16:16:22.405Z,11.17
2018-12-21T17:23:07.513Z,17.40
2018-12-21T17:36:40.335Z,16.37
2018-12-21T17:44:51.899Z,16.17
2018-12-21T17:47:25.767Z,19.90
2018-12-21T17:58:31.440Z,15.70
2018-12-21T18:04:21.514Z,13.90
2018-12-21T18:07:00.978Z,16.90
2018-12-21T18:10:01.909Z,18.27
2018-12-21T18:12:51.833Z,14.87
2018-12-21T18:22:01.708Z,17.80
2018-12-21T18:24:36.526Z,17.43
2018-12-21T18:36:59.101Z,14.87
2018-12-21T18:51:13.980Z,12.57
2018-12-21T18:54:05.328Z,12.70
2018-12-21T18:56:47.349Z,15.00
2018-12-21T18:59:37.091Z,14.60
2018-12-21T19:02:21.016Z,14.17
2018-12-21T19:04:59.837Z,16.17
2018-12-21T19:10:47.997Z,15.57
2018-12-21T19:16:08.421Z,15.63
2018-12-21T19:18:38.635Z,12.23
2018-12-21T19:21:09.218Z,12.17
2018-12-21T19:23:39.277Z,15.77
2018-12-21T19:26:15.304Z,16.70
2018-12-21T19:34:09.276Z,15.40
2018-12-21T19:36:47.473Z,17.07
2018-12-21T19:41:59.727Z,14.53
2018-12-21T19:47:11.344Z,17.77
2018-12-21T19:49:42.279Z,12.20
2018-12-21T19:54:50.893Z,15.83
2018-12-21T19:57:22.594Z,18.07
2018-12-21T20:02:30.562Z,17.50
2018-12-21T20:05:01.204Z,16.77
2018-12-21T20:07:36.815Z,20.07
2018-12-21T20:10:15.878Z,22.63
2018-12-21T20:12:53.676Z,18.93
2018-12-21T20:15:26.508Z,18.17
2018-12-21T20:17:56.188Z,15.70
2018-12-21T20:20:26.711Z,19.90
2018-12-21T20:22:57.643Z,20.83
2018-12-21T20:25:38.799Z,19.27
2018-12-21T20:31:10.656Z,17.57
2018-12-21T20:33:44.137Z,18.27
2018-12-21T20:42:08.540Z,18.70
2018-12-21T20:44:44.971Z,15.63
2018-12-21T20:56:48.852Z,20.87
2018-12-21T20:59:29.349Z,18.23
2018-12-21T21:01:59.001Z,15.20
2018-12-21T21:07:15.089Z,16.60
2018-12-21T21:12:42.508Z,16.47
2018-12-21T21:15:32.847Z,17.00
2018-12-21T21:18:02.752Z,21.87
2018-12-21T21:20:34.423Z,21.63
2018-12-21T21:26:00.999Z,18.77
2018-12-21T21:28:32.459Z,16.87
2018-12-21T21:31:04.729Z,16.03
2018-12-21T21:33:39.150Z,18.70
2018-12-21T21:36:12.226Z,19.37
2018-12-21T21:38:45.138Z,18.73
2018-12-21T21:41:19.364Z,24.03
2018-12-21T21:43:49.962Z,17.87
2018-12-21T21:46:26.522Z,23.70
2018-12-21T21:48:58.533Z,18.60
2018-12-21T21:51:28.580Z,23.27
2018-12-21T21:56:46.486Z,22.53
2018-12-21T21:59:19.676Z,23.23
2018-12-21T22:01:50.200Z,23.07
2018-12-21T22:04:29.683Z,17.47
2018-12-21T22:07:00.210Z,22.93
2018-12-21T22:09:37.316Z,18.27
2018-12-21T22:12:09.148Z,20.53
2018-12-21T22:14:38.808Z,16.73
2018-12-21T22:17:13.145Z,18.03
2018-12-21T22:19:43.494Z,15.93
2018-12-21T22:22:13.677Z,17.77
2018-12-21T22:24:48.721Z,20.87
2018-12-21T22:27:19.481Z,26.53
2018-12-21T22:29:49.497Z,23.77
2018-12-21T22:32:37.042Z,26.47
2018-12-21T22:35:09.094Z,22.07
2018-12-21T22:40:13.699Z,23.27
2018-12-21T22:45:26.989Z,19.43
2018-12-21T22:47:56.982Z,20.83
2018-12-21T22:50:34.916Z,19.70
2018-12-21T22:53:09.731Z,26.47
2018-12-21T22:58:20.319Z,23.30
2018-12-21T23:00:51.592Z,24.10
2018-12-21T23:03:28.659Z,27.93
2018-12-21T23:05:58.490Z,19.40
2018-12-21T23:08:33.518Z,22.70
2018-12-21T23:11:07.013Z,22.70
2018-12-21T23:13:36.635Z,22.40
2018-12-21T23:16:06.433Z,21.37
2018-12-21T23:18:36.023Z,27.80
2018-12-21T23:21:08.105Z,20.63
2018-12-21T23:23:38.072Z,23.53
2018-12-21T23:26:08.778Z,23.93
2018-12-21T23:28:38.376Z,21.63
2018-12-21T23:31:12.318Z,25.97
2018-12-21T23:33:45.405Z,24.03
2018-12-21T23:36:15.969Z,24.10
2018-12-21T23:38:46.484Z,27.07
2018-12-21T23:41:17.241Z,26.67
2018-12-21T23:43:50.637Z,22.30
2018-12-21T23:46:27.253Z,28.70
2018-12-21T23:48:58.614Z,25.30
2018-12-21T23:51:30.267Z,23.50
2018-12-21T23:54:00.967Z,25.37
2018-12-21T23:56:35.162Z,25.43
2018-12-21T23:59:11.365Z,22.97
